sensor_id;sensor_type;location;lat;lon;timestamp;pressure;altitude;pressure_sealevel;temperature;humidity
51849;BME280;38952;51.090;-1.832;2023-08-31T00:00:41;99820.44;;;11.30;88.91
51849;BME280;38952;51.090;-1.832;2023-08-31T00:03:07;99819.28;;;11.37;89.32
51849;BME280;38952;51.090;-1.832;2023-08-31T00:05:32;99822.03;;;11.31;88.91
51849;BME280;38952;51.090;-1.832;2023-08-31T00:08:01;99823.09;;;11.35;89.62
51849;BME280;38952;51.090;-1.832;2023-08-31T00:10:26;99794.72;;;11.26;89.08
51849;BME280;38952;51.090;-1.832;2023-08-31T00:12:52;99809.97;;;11.38;88.86
51849;BME280;38952;51.090;-1.832;2023-08-31T00:15:20;99801.69;;;11.43;88.98
51849;BME280;38952;51.090;-1.832;2023-08-31T00:17:48;99816.88;;;11.59;89.96
51849;BME280;38952;51.090;-1.832;2023-08-31T00:20:14;99801.59;;;11.53;89.46
51849;BME280;38952;51.090;-1.832;2023-08-31T00:22:40;99807.00;;;11.63;89.16
51849;BME280;38952;51.090;-1.832;2023-08-31T00:25:05;99786.81;;;11.54;89.61
51849;BME280;38952;51.090;-1.832;2023-08-31T00:27:34;99789.97;;;11.66;89.03
51849;BME280;38952;51.090;-1.832;2023-08-31T00:30:04;99795.47;;;11.66;89.14
51849;BME280;38952;51.090;-1.832;2023-08-31T00:32:31;99805.00;;;11.74;88.74
51849;BME280;38952;51.090;-1.832;2023-08-31T00:34:59;99782.88;;;11.65;88.46
51849;BME280;38952;51.090;-1.832;2023-08-31T00:37:31;99777.91;;;11.73;88.73
51849;BME280;38952;51.090;-1.832;2023-08-31T00:39:56;99797.44;;;11.90;88.60
51849;BME280;38952;51.090;-1.832;2023-08-31T00:42:22;99772.88;;;11.80;88.52
51849;BME280;38952;51.090;-1.832;2023-08-31T00:44:54;99795.19;;;11.97;88.23
51849;BME280;38952;51.090;-1.832;2023-08-31T00:47:20;99795.66;;;12.04;88.13
51849;BME280;38952;51.090;-1.832;2023-08-31T00:49:45;99792.38;;;12.02;88.00
51849;BME280;38952;51.090;-1.832;2023-08-31T00:52:11;99807.31;;;12.15;87.19
51849;BME280;38952;51.090;-1.832;2023-08-31T00:54:37;99794.53;;;12.05;87.03
51849;BME280;38952;51.090;-1.832;2023-08-31T00:57:03;99801.00;;;12.15;86.90
51849;BME280;38952;51.090;-1.832;2023-08-31T00:59:29;99792.34;;;12.08;86.62
51849;BME280;38952;51.090;-1.832;2023-08-31T01:02:07;99800.19;;;12.14;86.63
51849;BME280;38952;51.090;-1.832;2023-08-31T01:10:15;99784.47;;;12.01;86.76
51849;BME280;38952;51.090;-1.832;2023-08-31T01:12:58;99785.34;;;11.96;86.91
51849;BME280;38952;51.090;-1.832;2023-08-31T01:15:32;99796.81;;;11.98;86.85
51849;BME280;38952;51.090;-1.832;2023-08-31T01:17:59;99788.94;;;11.92;87.24
51849;BME280;38952;51.090;-1.832;2023-08-31T01:20:42;99788.38;;;11.95;87.23
51849;BME280;38952;51.090;-1.832;2023-08-31T01:23:13;99790.22;;;11.99;86.74
51849;BME280;38952;51.090;-1.832;2023-08-31T01:25:41;99780.72;;;11.92;86.85
51849;BME280;38952;51.090;-1.832;2023-08-31T01:28:08;99785.34;;;11.91;86.81
51849;BME280;38952;51.090;-1.832;2023-08-31T01:30:35;99789.25;;;11.85;86.86
51849;BME280;38952;51.090;-1.832;2023-08-31T01:33:01;99793.38;;;11.82;87.13
51849;BME280;38952;51.090;-1.832;2023-08-31T01:35:29;99789.13;;;11.71;87.45
51849;BME280;38952;51.090;-1.832;2023-08-31T01:37:59;99781.34;;;11.54;87.74
51849;BME280;38952;51.090;-1.832;2023-08-31T01:40:38;99783.69;;;11.37;87.82
51849;BME280;38952;51.090;-1.832;2023-08-31T01:43:06;99794.44;;;11.28;88.34
51849;BME280;38952;51.090;-1.832;2023-08-31T01:45:34;99786.59;;;11.16;88.93
51849;BME280;38952;51.090;-1.832;2023-08-31T01:48:01;99763.72;;;11.02;88.63
51849;BME280;38952;51.090;-1.832;2023-08-31T01:50:26;99780.06;;;11.12;89.44
51849;BME280;38952;51.090;-1.832;2023-08-31T01:52:52;99780.88;;;11.12;88.89
51849;BME280;38952;51.090;-1.832;2023-08-31T01:55:21;99771.88;;;11.07;89.64
51849;BME280;38952;51.090;-1.832;2023-08-31T01:57:47;99762.63;;;11.03;89.50
51849;BME280;38952;51.090;-1.832;2023-08-31T02:00:14;99765.38;;;11.03;89.19
51849;BME280;38952;51.090;-1.832;2023-08-31T02:02:42;99757.75;;;10.94;89.09
51849;BME280;38952;51.090;-1.832;2023-08-31T02:05:08;99768.03;;;11.08;89.59
51849;BME280;38952;51.090;-1.832;2023-08-31T02:07:33;99778.69;;;11.14;90.06
51849;BME280;38952;51.090;-1.832;2023-08-31T02:10:06;99764.72;;;11.11;89.26
51849;BME280;38952;51.090;-1.832;2023-08-31T02:12:35;99761.41;;;11.14;89.30
51849;BME280;38952;51.090;-1.832;2023-08-31T02:15:04;99756.50;;;11.16;89.38
51849;BME280;38952;51.090;-1.832;2023-08-31T02:17:30;99742.25;;;11.14;89.02
51849;BME280;38952;51.090;-1.832;2023-08-31T02:19:56;99756.69;;;11.25;89.15
51849;BME280;38952;51.090;-1.832;2023-08-31T02:22:23;99775.00;;;11.29;89.23
51849;BME280;38952;51.090;-1.832;2023-08-31T02:24:53;99722.41;;;11.03;89.58
51849;BME280;38952;51.090;-1.832;2023-08-31T02:27:19;99762.41;;;11.28;89.18
51849;BME280;38952;51.090;-1.832;2023-08-31T02:29:44;99768.38;;;11.35;89.09
51849;BME280;38952;51.090;-1.832;2023-08-31T02:32:10;99762.66;;;11.32;89.82
51849;BME280;38952;51.090;-1.832;2023-08-31T02:34:35;99764.81;;;11.35;89.44
51849;BME280;38952;51.090;-1.832;2023-08-31T02:37:00;99750.66;;;11.28;89.24
51849;BME280;38952;51.090;-1.832;2023-08-31T02:39:26;99755.78;;;11.34;89.42
51849;BME280;38952;51.090;-1.832;2023-08-31T02:41:51;99747.84;;;11.33;89.43
51849;BME280;38952;51.090;-1.832;2023-08-31T02:44:17;99744.88;;;11.29;89.36
51849;BME280;38952;51.090;-1.832;2023-08-31T02:46:45;99742.72;;;11.26;89.48
51849;BME280;38952;51.090;-1.832;2023-08-31T02:49:10;99757.47;;;11.30;89.44
51849;BME280;38952;51.090;-1.832;2023-08-31T02:51:36;99737.84;;;11.18;89.63
51849;BME280;38952;51.090;-1.832;2023-08-31T02:54:01;99751.44;;;11.28;89.72
51849;BME280;38952;51.090;-1.832;2023-08-31T02:56:30;99741.63;;;11.27;89.61
51849;BME280;38952;51.090;-1.832;2023-08-31T02:58:58;99723.59;;;11.21;89.83
51849;BME280;38952;51.090;-1.832;2023-08-31T03:01:24;99732.88;;;11.25;89.35
51849;BME280;38952;51.090;-1.832;2023-08-31T03:03:49;99751.44;;;11.33;89.73
51849;BME280;38952;51.090;-1.832;2023-08-31T03:06:15;99738.91;;;11.27;89.40
51849;BME280;38952;51.090;-1.832;2023-08-31T03:08:42;99745.19;;;11.28;90.02
51849;BME280;38952;51.090;-1.832;2023-08-31T03:11:07;99743.25;;;11.28;89.70
51849;BME280;38952;51.090;-1.832;2023-08-31T03:13:33;99743.31;;;11.23;90.36
51849;BME280;38952;51.090;-1.832;2023-08-31T03:16:00;99726.41;;;11.16;90.22
51849;BME280;38952;51.090;-1.832;2023-08-31T03:18:26;99738.63;;;11.24;89.98
51849;BME280;38952;51.090;-1.832;2023-08-31T03:20:51;99721.50;;;11.13;90.42
51849;BME280;38952;51.090;-1.832;2023-08-31T03:23:17;99717.13;;;11.12;90.39
51849;BME280;38952;51.090;-1.832;2023-08-31T03:25:42;99717.69;;;11.09;89.89
51849;BME280;38952;51.090;-1.832;2023-08-31T03:28:08;99737.84;;;11.23;90.62
51849;BME280;38952;51.090;-1.832;2023-08-31T03:30:35;99723.94;;;11.14;90.28
51849;BME280;38952;51.090;-1.832;2023-08-31T03:33:00;99716.31;;;11.11;90.75
51849;BME280;38952;51.090;-1.832;2023-08-31T03:35:26;99707.84;;;11.08;89.82
51849;BME280;38952;51.090;-1.832;2023-08-31T03:37:53;99713.88;;;11.10;90.14
51849;BME280;38952;51.090;-1.832;2023-08-31T03:40:18;99714.69;;;11.05;90.17
51849;BME280;38952;51.090;-1.832;2023-08-31T03:42:44;99738.97;;;11.17;90.23
51849;BME280;38952;51.090;-1.832;2023-08-31T03:45:19;99741.44;;;11.18;90.75
51849;BME280;38952;51.090;-1.832;2023-08-31T03:47:52;99712.81;;;11.06;90.53
51849;BME280;38952;51.090;-1.832;2023-08-31T03:50:18;99729.13;;;11.16;90.21
51849;BME280;38952;51.090;-1.832;2023-08-31T03:52:46;99720.38;;;11.14;90.41
51849;BME280;38952;51.090;-1.832;2023-08-31T03:55:14;99733.97;;;11.24;90.62
51849;BME280;38952;51.090;-1.832;2023-08-31T03:57:43;99723.38;;;11.17;90.19
51849;BME280;38952;51.090;-1.832;2023-08-31T04:00:08;99729.06;;;11.21;90.37
51849;BME280;38952;51.090;-1.832;2023-08-31T04:02:37;99723.66;;;11.16;90.33
51849;BME280;38952;51.090;-1.832;2023-08-31T04:05:03;99720.91;;;11.16;90.56
51849;BME280;38952;51.090;-1.832;2023-08-31T04:07:31;99730.13;;;11.25;90.71
51849;BME280;38952;51.090;-1.832;2023-08-31T04:09:57;99742.38;;;11.33;90.49
51849;BME280;38952;51.090;-1.832;2023-08-31T04:12:22;99736.16;;;11.27;89.94
51849;BME280;38952;51.090;-1.832;2023-08-31T04:14:50;99731.19;;;11.29;90.20
51849;BME280;38952;51.090;-1.832;2023-08-31T04:17:16;99743.69;;;11.41;90.18
51849;BME280;38952;51.090;-1.832;2023-08-31T04:19:41;99717.50;;;11.29;90.34
51849;BME280;38952;51.090;-1.832;2023-08-31T04:22:06;99731.63;;;11.42;89.85
51849;BME280;38952;51.090;-1.832;2023-08-31T04:24:32;99738.69;;;11.48;89.44
51849;BME280;38952;51.090;-1.832;2023-08-31T04:26:58;99726.63;;;11.49;89.54
51849;BME280;38952;51.090;-1.832;2023-08-31T04:29:24;99734.22;;;11.57;89.24
51849;BME280;38952;51.090;-1.832;2023-08-31T04:31:50;99752.22;;;11.63;89.34
51849;BME280;38952;51.090;-1.832;2023-08-31T04:34:15;99752.78;;;11.65;89.63
51849;BME280;38952;51.090;-1.832;2023-08-31T04:36:43;99747.22;;;11.70;88.92
51849;BME280;38952;51.090;-1.832;2023-08-31T04:39:11;99743.41;;;11.66;88.83
51849;BME280;38952;51.090;-1.832;2023-08-31T04:41:39;99767.97;;;11.77;89.02
51849;BME280;38952;51.090;-1.832;2023-08-31T04:44:04;99746.41;;;11.70;88.34
51849;BME280;38952;51.090;-1.832;2023-08-31T04:46:30;99753.78;;;11.69;88.95
51849;BME280;38952;51.090;-1.832;2023-08-31T04:48:55;99761.97;;;11.75;88.63
51849;BME280;38952;51.090;-1.832;2023-08-31T04:51:36;99751.63;;;11.66;88.87
51849;BME280;38952;51.090;-1.832;2023-08-31T04:54:07;99751.34;;;11.68;88.92
51849;BME280;38952;51.090;-1.832;2023-08-31T04:56:33;99752.19;;;11.68;88.47
51849;BME280;38952;51.090;-1.832;2023-08-31T04:58:59;99741.28;;;11.63;88.78
51849;BME280;38952;51.090;-1.832;2023-08-31T05:01:25;99745.06;;;11.67;88.88
51849;BME280;38952;51.090;-1.832;2023-08-31T05:03:50;99740.16;;;11.64;88.93
51849;BME280;38952;51.090;-1.832;2023-08-31T05:06:19;99756.69;;;11.83;88.91
51849;BME280;38952;51.090;-1.832;2023-08-31T05:08:46;99738.19;;;11.70;88.32
51849;BME280;38952;51.090;-1.832;2023-08-31T05:11:11;99761.81;;;11.90;88.19
51849;BME280;38952;51.090;-1.832;2023-08-31T05:13:39;99761.25;;;11.93;88.19
51849;BME280;38952;51.090;-1.832;2023-08-31T05:16:08;99745.13;;;11.86;88.25
51849;BME280;38952;51.090;-1.832;2023-08-31T05:18:33;99743.75;;;11.89;88.01
51849;BME280;38952;51.090;-1.832;2023-08-31T05:21:01;99745.88;;;11.97;88.10
51849;BME280;38952;51.090;-1.832;2023-08-31T05:23:26;99763.06;;;12.03;88.64
51849;BME280;38952;51.090;-1.832;2023-08-31T05:25:52;99737.41;;;11.94;87.85
51849;BME280;38952;51.090;-1.832;2023-08-31T05:28:17;99737.69;;;11.92;88.44
51849;BME280;38952;51.090;-1.832;2023-08-31T05:30:54;99746.91;;;12.01;88.29
51849;BME280;38952;51.090;-1.832;2023-08-31T05:33:20;99752.38;;;12.01;88.19
51849;BME280;38952;51.090;-1.832;2023-08-31T05:35:52;99753.56;;;11.95;87.86
51849;BME280;38952;51.090;-1.832;2023-08-31T05:38:20;99734.69;;;11.94;88.16
51849;BME280;38952;51.090;-1.832;2023-08-31T05:40:46;99743.88;;;12.03;88.34
51849;BME280;38952;51.090;-1.832;2023-08-31T05:43:17;99715.75;;;11.92;88.79
51849;BME280;38952;51.090;-1.832;2023-08-31T05:45:42;99732.88;;;12.08;88.61
51849;BME280;38952;51.090;-1.832;2023-08-31T05:48:08;99721.34;;;12.06;88.25
51849;BME280;38952;51.090;-1.832;2023-08-31T05:50:33;99738.50;;;12.17;88.36
51849;BME280;38952;51.090;-1.832;2023-08-31T05:52:59;99731.38;;;12.16;88.38
51849;BME280;38952;51.090;-1.832;2023-08-31T05:55:34;99721.00;;;12.13;88.50
51849;BME280;38952;51.090;-1.832;2023-08-31T05:58:08;99725.09;;;12.15;88.53
51849;BME280;38952;51.090;-1.832;2023-08-31T06:00:34;99715.53;;;12.13;88.18
51849;BME280;38952;51.090;-1.832;2023-08-31T06:03:17;99750.41;;;12.31;88.64
51849;BME280;38952;51.090;-1.832;2023-08-31T06:05:43;99739.63;;;12.35;88.77
51849;BME280;38952;51.090;-1.832;2023-08-31T06:08:11;99735.03;;;12.30;88.03
51849;BME280;38952;51.090;-1.832;2023-08-31T06:10:39;99728.66;;;12.35;88.31
51849;BME280;38952;51.090;-1.832;2023-08-31T06:13:04;99729.72;;;12.39;88.36
51849;BME280;38952;51.090;-1.832;2023-08-31T06:15:32;99732.09;;;12.46;88.06
51849;BME280;38952;51.090;-1.832;2023-08-31T06:17:57;99734.75;;;12.51;87.82
51849;BME280;38952;51.090;-1.832;2023-08-31T06:20:25;99725.94;;;12.54;87.81
51849;BME280;38952;51.090;-1.832;2023-08-31T06:23:09;99723.34;;;12.63;87.62
51849;BME280;38952;51.090;-1.832;2023-08-31T06:25:46;99696.91;;;12.53;87.87
51849;BME280;38952;51.090;-1.832;2023-08-31T06:28:12;99725.78;;;12.64;87.07
51849;BME280;38952;51.090;-1.832;2023-08-31T06:30:37;99721.94;;;12.65;86.99
51849;BME280;38952;51.090;-1.832;2023-08-31T06:33:03;99723.78;;;12.70;87.55
51849;BME280;38952;51.090;-1.832;2023-08-31T06:35:29;99738.69;;;12.83;87.57
51849;BME280;38952;51.090;-1.832;2023-08-31T06:37:54;99729.97;;;12.81;87.47
51849;BME280;38952;51.090;-1.832;2023-08-31T06:40:21;99727.66;;;12.88;87.36
51849;BME280;38952;51.090;-1.832;2023-08-31T06:42:47;99741.78;;;12.95;87.31
51849;BME280;38952;51.090;-1.832;2023-08-31T06:45:19;99749.59;;;13.07;87.13
51849;BME280;38952;51.090;-1.832;2023-08-31T06:47:45;99741.72;;;13.00;87.27
51849;BME280;38952;51.090;-1.832;2023-08-31T06:50:11;99741.66;;;13.05;87.12
51849;BME280;38952;51.090;-1.832;2023-08-31T06:52:36;99738.38;;;13.03;87.43
51849;BME280;38952;51.090;-1.832;2023-08-31T06:55:09;99746.13;;;13.15;86.70
51849;BME280;38952;51.090;-1.832;2023-08-31T06:57:37;99758.28;;;13.28;86.93
51849;BME280;38952;51.090;-1.832;2023-08-31T07:00:03;99747.31;;;13.28;86.54
51849;BME280;38952;51.090;-1.832;2023-08-31T07:02:31;99737.66;;;13.31;86.22
51849;BME280;38952;51.090;-1.832;2023-08-31T07:04:56;99751.75;;;13.43;86.64
51849;BME280;38952;51.090;-1.832;2023-08-31T07:07:22;99743.31;;;13.39;86.59
51849;BME280;38952;51.090;-1.832;2023-08-31T07:09:47;99738.31;;;13.41;86.08
51849;BME280;38952;51.090;-1.832;2023-08-31T07:12:16;99730.59;;;13.43;86.25
51849;BME280;38952;51.090;-1.832;2023-08-31T07:14:42;99744.66;;;13.56;86.13
51849;BME280;38952;51.090;-1.832;2023-08-31T07:17:10;99748.75;;;13.72;86.18
51849;BME280;38952;51.090;-1.832;2023-08-31T07:19:36;99736.75;;;13.68;85.71
51849;BME280;38952;51.090;-1.832;2023-08-31T07:22:02;99751.19;;;13.88;85.44
51849;BME280;38952;51.090;-1.832;2023-08-31T07:24:29;99759.75;;;14.00;84.86
51849;BME280;38952;51.090;-1.832;2023-08-31T07:26:55;99754.66;;;14.07;84.91
51849;BME280;38952;51.090;-1.832;2023-08-31T07:29:20;99752.44;;;14.09;84.96
51849;BME280;38952;51.090;-1.832;2023-08-31T07:31:46;99756.78;;;14.10;84.50
51849;BME280;38952;51.090;-1.832;2023-08-31T07:34:14;99763.44;;;14.09;84.77
51849;BME280;38952;51.090;-1.832;2023-08-31T07:36:40;99746.72;;;14.06;84.60
51849;BME280;38952;51.090;-1.832;2023-08-31T07:39:05;99751.59;;;14.09;84.81
51849;BME280;38952;51.090;-1.832;2023-08-31T07:41:31;99757.31;;;14.12;84.90
51849;BME280;38952;51.090;-1.832;2023-08-31T07:43:57;99757.72;;;14.20;84.60
51849;BME280;38952;51.090;-1.832;2023-08-31T07:46:32;99756.31;;;14.22;84.26
51849;BME280;38952;51.090;-1.832;2023-08-31T07:49:00;99764.66;;;14.31;84.13
51849;BME280;38952;51.090;-1.832;2023-08-31T07:51:52;99749.56;;;14.28;84.16
51849;BME280;38952;51.090;-1.832;2023-08-31T07:54:23;99743.13;;;14.33;83.75
51849;BME280;38952;51.090;-1.832;2023-08-31T07:56:56;99741.69;;;14.49;83.61
51849;BME280;38952;51.090;-1.832;2023-08-31T07:59:21;99745.53;;;14.76;83.13
51849;BME280;38952;51.090;-1.832;2023-08-31T08:02:09;99734.53;;;14.99;81.81
51849;BME280;38952;51.090;-1.832;2023-08-31T08:07:38;99734.38;;;14.81;81.79
51849;BME280;38952;51.090;-1.832;2023-08-31T08:10:09;99750.50;;;14.74;82.42
51849;BME280;38952;51.090;-1.832;2023-08-31T08:12:39;99748.59;;;14.61;82.78
51849;BME280;38952;51.090;-1.832;2023-08-31T08:15:05;99758.72;;;14.52;82.74
51849;BME280;38952;51.090;-1.832;2023-08-31T08:17:32;99764.22;;;14.38;82.80
51849;BME280;38952;51.090;-1.832;2023-08-31T08:20:05;99746.94;;;14.09;83.53
51849;BME280;38952;51.090;-1.832;2023-08-31T08:22:31;99755.47;;;13.94;84.07
51849;BME280;38952;51.090;-1.832;2023-08-31T08:24:56;99748.25;;;13.70;84.66
51849;BME280;38952;51.090;-1.832;2023-08-31T08:27:22;99760.53;;;13.59;84.97
51849;BME280;38952;51.090;-1.832;2023-08-31T08:29:47;99757.47;;;13.47;85.90
51849;BME280;38952;51.090;-1.832;2023-08-31T08:32:13;99752.16;;;13.36;86.39
51849;BME280;38952;51.090;-1.832;2023-08-31T08:34:38;99747.81;;;13.30;86.20
51849;BME280;38952;51.090;-1.832;2023-08-31T08:37:04;99750.28;;;13.32;86.78
51849;BME280;38952;51.090;-1.832;2023-08-31T08:39:30;99750.03;;;13.28;86.58
51849;BME280;38952;51.090;-1.832;2023-08-31T08:41:57;99748.56;;;13.17;87.08
51849;BME280;38952;51.090;-1.832;2023-08-31T08:44:33;99749.88;;;13.05;87.51
51849;BME280;38952;51.090;-1.832;2023-08-31T08:47:02;99749.19;;;13.14;87.73
51849;BME280;38952;51.090;-1.832;2023-08-31T08:49:30;99747.41;;;13.23;87.49
51849;BME280;38952;51.090;-1.832;2023-08-31T08:51:56;99742.78;;;13.18;87.52
51849;BME280;38952;51.090;-1.832;2023-08-31T08:54:24;99757.78;;;13.26;87.88
51849;BME280;38952;51.090;-1.832;2023-08-31T08:56:59;99740.16;;;13.13;88.07
51849;BME280;38952;51.090;-1.832;2023-08-31T08:59:26;99728.31;;;13.13;87.71
51849;BME280;38952;51.090;-1.832;2023-08-31T09:01:53;99742.91;;;13.27;88.10
51849;BME280;38952;51.090;-1.832;2023-08-31T09:04:19;99756.19;;;13.39;87.75
51849;BME280;38952;51.090;-1.832;2023-08-31T09:06:44;99744.16;;;13.54;87.98
51849;BME280;38952;51.090;-1.832;2023-08-31T09:09:10;99739.78;;;13.81;87.74
51849;BME280;38952;51.090;-1.832;2023-08-31T09:11:36;99741.63;;;14.27;86.25
51849;BME280;38952;51.090;-1.832;2023-08-31T09:14:18;99737.31;;;14.62;85.31
51849;BME280;38952;51.090;-1.832;2023-08-31T09:16:51;99745.38;;;14.95;83.78
51849;BME280;38952;51.090;-1.832;2023-08-31T09:19:19;99744.59;;;15.04;83.21
51849;BME280;38952;51.090;-1.832;2023-08-31T09:21:45;99733.91;;;15.02;83.26
51849;BME280;38952;51.090;-1.832;2023-08-31T09:24:11;99731.84;;;15.08;83.78
51849;BME280;38952;51.090;-1.832;2023-08-31T09:26:39;99733.38;;;15.23;83.29
51849;BME280;38952;51.090;-1.832;2023-08-31T09:29:07;99723.09;;;15.37;82.50
51849;BME280;38952;51.090;-1.832;2023-08-31T09:31:35;99724.03;;;15.55;82.37
51849;BME280;38952;51.090;-1.832;2023-08-31T09:34:01;99718.78;;;15.76;81.27
51849;BME280;38952;51.090;-1.832;2023-08-31T09:36:26;99718.25;;;16.05;80.60
51849;BME280;38952;51.090;-1.832;2023-08-31T09:38:57;99730.94;;;16.15;79.57
51849;BME280;38952;51.090;-1.832;2023-08-31T09:41:23;99717.28;;;16.10;79.24
51849;BME280;38952;51.090;-1.832;2023-08-31T09:43:49;99720.03;;;16.10;79.20
51849;BME280;38952;51.090;-1.832;2023-08-31T09:46:14;99715.72;;;16.27;79.21
51849;BME280;38952;51.090;-1.832;2023-08-31T09:48:42;99716.38;;;16.41;78.64
51849;BME280;38952;51.090;-1.832;2023-08-31T09:51:09;99715.25;;;16.60;77.94
51849;BME280;38952;51.090;-1.832;2023-08-31T09:53:36;99710.41;;;17.00;77.13
51849;BME280;38952;51.090;-1.832;2023-08-31T09:56:05;99700.41;;;17.43;75.73
51849;BME280;38952;51.090;-1.832;2023-08-31T09:58:31;99708.47;;;17.66;74.42
51849;BME280;38952;51.090;-1.832;2023-08-31T10:00:57;99697.25;;;17.62;74.23
51849;BME280;38952;51.090;-1.832;2023-08-31T10:03:23;99702.28;;;17.69;73.74
51849;BME280;38952;51.090;-1.832;2023-08-31T10:05:50;99692.84;;;17.70;72.99
51849;BME280;38952;51.090;-1.832;2023-08-31T10:08:20;99696.84;;;17.81;72.65
51849;BME280;38952;51.090;-1.832;2023-08-31T10:10:45;99676.53;;;17.77;71.94
51849;BME280;38952;51.090;-1.832;2023-08-31T10:13:12;99688.38;;;17.95;72.04
51849;BME280;38952;51.090;-1.832;2023-08-31T10:15:38;99681.06;;;17.90;71.68
51849;BME280;38952;51.090;-1.832;2023-08-31T10:18:06;99684.22;;;17.71;72.09
51849;BME280;38952;51.090;-1.832;2023-08-31T10:20:32;99688.13;;;17.70;72.22
51849;BME280;38952;51.090;-1.832;2023-08-31T10:23:00;99676.63;;;17.51;72.62
51849;BME280;38952;51.090;-1.832;2023-08-31T10:28:22;99678.88;;;17.19;72.69
51849;BME280;38952;51.090;-1.832;2023-08-31T10:31:17;99677.94;;;16.97;72.94
51849;BME280;38952;51.090;-1.832;2023-08-31T10:33:47;99665.25;;;16.96;73.69
51849;BME280;38952;51.090;-1.832;2023-08-31T10:36:20;99655.63;;;17.11;73.38
51849;BME280;38952;51.090;-1.832;2023-08-31T10:41:23;99673.09;;;18.19;71.74
51849;BME280;38952;51.090;-1.832;2023-08-31T10:43:57;99655.63;;;18.48;70.69
51849;BME280;38952;51.090;-1.832;2023-08-31T10:46:32;99663.84;;;18.78;70.17
51849;BME280;38952;51.090;-1.832;2023-08-31T10:51:31;99643.31;;;17.86;70.95
51849;BME280;38952;51.090;-1.832;2023-08-31T10:54:11;99659.69;;;17.70;72.32
51849;BME280;38952;51.090;-1.832;2023-08-31T10:59:20;99653.59;;;18.15;73.06
51849;BME280;38952;51.090;-1.832;2023-08-31T11:02:00;99647.94;;;18.33;72.96
51849;BME280;38952;51.090;-1.832;2023-08-31T11:04:29;99645.47;;;18.10;72.67
51849;BME280;38952;51.090;-1.832;2023-08-31T11:07:17;99649.34;;;17.49;75.34
51849;BME280;38952;51.090;-1.832;2023-08-31T11:09:44;99647.03;;;16.86;76.42
51849;BME280;38952;51.090;-1.832;2023-08-31T11:12:11;99641.72;;;16.29;78.35
51849;BME280;38952;51.090;-1.832;2023-08-31T11:14:37;99638.75;;;15.99;80.18
51849;BME280;38952;51.090;-1.832;2023-08-31T11:17:03;99638.09;;;15.84;81.23
51849;BME280;38952;51.090;-1.832;2023-08-31T11:19:31;99630.66;;;15.62;82.76
51849;BME280;38952;51.090;-1.832;2023-08-31T11:21:57;99648.00;;;15.54;83.34
51849;BME280;38952;51.090;-1.832;2023-08-31T11:24:22;99651.91;;;15.62;83.86
51849;BME280;38952;51.090;-1.832;2023-08-31T11:26:50;99647.97;;;15.45;84.60
51849;BME280;38952;51.090;-1.832;2023-08-31T11:29:15;99652.97;;;15.43;85.31
51849;BME280;38952;51.090;-1.832;2023-08-31T11:31:41;99646.53;;;15.48;85.27
51849;BME280;38952;51.090;-1.832;2023-08-31T11:34:17;99642.38;;;15.28;85.80
51849;BME280;38952;51.090;-1.832;2023-08-31T11:36:44;99641.03;;;15.16;86.19
51849;BME280;38952;51.090;-1.832;2023-08-31T11:39:13;99641.22;;;15.20;86.87
51849;BME280;38952;51.090;-1.832;2023-08-31T11:41:39;99630.00;;;15.16;86.58
51849;BME280;38952;51.090;-1.832;2023-08-31T11:44:15;99630.50;;;15.18;86.52
51849;BME280;38952;51.090;-1.832;2023-08-31T11:46:44;99634.75;;;15.25;86.04
51849;BME280;38952;51.090;-1.832;2023-08-31T11:49:11;99631.16;;;15.24;86.12
51849;BME280;38952;51.090;-1.832;2023-08-31T11:51:38;99622.94;;;15.33;86.06
51849;BME280;38952;51.090;-1.832;2023-08-31T11:54:06;99625.28;;;15.48;85.85
51849;BME280;38952;51.090;-1.832;2023-08-31T11:56:41;99616.59;;;15.64;85.48
51849;BME280;38952;51.090;-1.832;2023-08-31T11:59:11;99626.41;;;15.87;84.85
51849;BME280;38952;51.090;-1.832;2023-08-31T12:01:47;99621.59;;;16.02;84.15
51849;BME280;38952;51.090;-1.832;2023-08-31T12:04:19;99630.03;;;16.32;83.30
51849;BME280;38952;51.090;-1.832;2023-08-31T12:06:50;99625.50;;;16.53;81.72
51849;BME280;38952;51.090;-1.832;2023-08-31T12:09:16;99628.56;;;16.61;81.87
51849;BME280;38952;51.090;-1.832;2023-08-31T12:11:42;99629.22;;;16.75;82.00
51849;BME280;38952;51.090;-1.832;2023-08-31T12:14:21;99619.09;;;17.05;81.33
51849;BME280;38952;51.090;-1.832;2023-08-31T12:16:48;99630.38;;;17.30;79.82
51849;BME280;38952;51.090;-1.832;2023-08-31T12:19:13;99628.69;;;17.55;79.31
51849;BME280;38952;51.090;-1.832;2023-08-31T12:21:42;99634.53;;;17.92;77.51
51849;BME280;38952;51.090;-1.832;2023-08-31T12:24:09;99636.63;;;17.87;76.94
51849;BME280;38952;51.090;-1.832;2023-08-31T12:26:34;99637.09;;;17.59;77.76
51849;BME280;38952;51.090;-1.832;2023-08-31T12:29:00;99647.44;;;17.41;78.05
51849;BME280;38952;51.090;-1.832;2023-08-31T12:31:26;99638.47;;;17.44;77.89
51849;BME280;38952;51.090;-1.832;2023-08-31T12:33:51;99641.03;;;17.49;78.31
51849;BME280;38952;51.090;-1.832;2023-08-31T12:36:17;99641.84;;;17.58;78.17
51849;BME280;38952;51.090;-1.832;2023-08-31T12:38:42;99622.16;;;17.60;78.09
51849;BME280;38952;51.090;-1.832;2023-08-31T12:41:08;99630.28;;;17.56;77.67
51849;BME280;38952;51.090;-1.832;2023-08-31T12:43:34;99632.28;;;17.47;78.42
51849;BME280;38952;51.090;-1.832;2023-08-31T12:46:00;99623.91;;;17.65;77.85
51849;BME280;38952;51.090;-1.832;2023-08-31T12:48:26;99636.72;;;17.69;77.74
51849;BME280;38952;51.090;-1.832;2023-08-31T12:50:51;99627.50;;;17.56;78.23
51849;BME280;38952;51.090;-1.832;2023-08-31T12:53:20;99626.63;;;17.73;78.51
51849;BME280;38952;51.090;-1.832;2023-08-31T12:55:46;99626.69;;;17.94;77.87
51849;BME280;38952;51.090;-1.832;2023-08-31T12:58:11;99629.53;;;18.28;77.32
51849;BME280;38952;51.090;-1.832;2023-08-31T13:00:37;99619.78;;;18.52;76.51
51849;BME280;38952;51.090;-1.832;2023-08-31T13:03:02;99623.44;;;18.77;75.92
51849;BME280;38952;51.090;-1.832;2023-08-31T13:05:28;99626.75;;;18.91;75.40
51849;BME280;38952;51.090;-1.832;2023-08-31T13:07:56;99622.13;;;18.62;75.04
51849;BME280;38952;51.090;-1.832;2023-08-31T13:10:22;99627.25;;;18.51;75.56
51849;BME280;38952;51.090;-1.832;2023-08-31T13:12:47;99629.00;;;18.56;75.63